Main page
METAR-TAF:

METAR-TAF

Airports :

Brussels Airport. Zaventem

Brussels, Belgium

latitude: 50-54N, longitude: 004-32E, elevation: 55 m

Current weather observation

The report was made 28 minutes ago, at 16:20 UTC
Wind 4 kt from the East
Temperature 16°C
Humidity 77%
Pressure 1009 hPa
Visibility 10 km or more
no clouds below 1500 m and no cumulonimbus

METAR: EBBR 231620Z 09004KT CAVOK 16/12 Q1009 NOSIG

Time: 18:48 (16:48 UTC)

Forecast

The report was made 5 hours and 28 minutes ago, at 11:20 UTC
Forecast valid from 23 at 12 UTC to 24 at 18 UTC
Wind 6 kt from the East
Visibility 10 km or more
no clouds below 1500 m and no cumulonimbus
Becoming
from 24 at 08 UTC to 24 at 10 UTC
Wind 10 kt from the South/Southeast
Becoming
from 24 at 16 UTC to 24 at 18 UTC
Wind 14 kt from the Southwest

TAF: EBBR 231120Z 2312/2418 10006KT CAVOK BECMG 2408/2410 16010KT BECMG 2416/2418 22014KT

Weather observations and forecasts of more than 4000 airports (METAR and TAF reports).

The available stations are represented by yellow and red dots on the map.

Hover mouse over dot to see the name of the station.

Then click to see weather observations and forecasts.

To change the map : click on the green buttons with a black cross to zoom in, on the green button with a dash to zoom out, or on the green arrows for adjacent maps.


METAR-TAF: